Check out our new PWSWeather beta!
PWSweather.com
Personal Weather Stations
Station Observations

YeovilGB

Lat: 50.949, Lon: -2.627

Elevation: 70

Station Type: Vantage Pro

http://www.yeovil-weather.me.uk/

High Low Average
Temperature 50.4°F10.2°C 38.3°F3.5°C 44.2°F6.8°C
Dew Point 42.9°F6.1°C 35.3°F1.8°C 39.3°F4.1°C
Winds 13.8 mph 22.2 kmh Calm Calm 4.0 mph WSW6.4 kmh WSW
Wind Gusts 24.2 mph38.9 kmh -- 8.0 mph12.9 kmh
Humidity 89% 63% 83%
Pressure 29.64 in1003.7 mb 29.53 in1000.0 mb -
Precipitation 0.02 in0.5 mm - -
Hour Temp Dew Point Humidity Winds Wind Gusts Pressure Precip Precip Rate Daily Precip Total
12:00 AM 41.9°F5.5°C 38.0°F3.3°C 86% 4.6 mph SW7.4 kmh SW 9.2 mph14.8 kmh 29.64 in1003.7 mb - 0.00 in0.0 mm 0.00 in0.0 mm
12:10 AM 41.9°F5.5°C 38.0°F3.3°C 86% 4.6 mph SW7.4 kmh SW 8.1 mph13.0 kmh 29.64 in1003.7 mb - 0.00 in0.0 mm 0.00 in0.0 mm
12:20 AM 41.8°F5.4°C 37.9°F3.3°C 86% 2.3 mph SW3.7 kmh SW 10.4 mph16.7 kmh 29.63 in1003.4 mb - 0.00 in0.0 mm 0.00 in0.0 mm
12:30 AM 41.6°F5.3°C 38.0°F3.3°C 87% 2.3 mph S3.7 kmh S 4.6 mph7.4 kmh 29.63 in1003.4 mb - 0.00 in0.0 mm 0.00 in0.0 mm
12:40 AM 41.4°F5.2°C 37.9°F3.3°C 87% 3.5 mph SW5.6 kmh SW 11.5 mph18.5 kmh 29.63 in1003.4 mb - 0.00 in0.0 mm 0.00 in0.0 mm
12:50 AM 41.4°F5.2°C 38.1°F3.4°C 88% 2.3 mph SSW3.7 kmh SSW 5.8 mph9.3 kmh 29.63 in1003.4 mb - 0.00 in0.0 mm 0.00 in0.0 mm
01:00 AM 41.5°F5.3°C 38.2°F3.4°C 88% 4.6 mph SSW7.4 kmh SSW 4.6 mph7.4 kmh 29.62 in1003.0 mb - 0.00 in0.0 mm 0.00 in0.0 mm
01:10 AM 41.4°F5.2°C 38.1°F3.4°C 88% 3.5 mph SW5.6 kmh SW 5.8 mph9.3 kmh 29.62 in1003.0 mb - 0.00 in0.0 mm 0.00 in0.0 mm
01:20 AM 41.3°F5.2°C 38.0°F3.3°C 88% Calm Calm 6.9 mph11.1 kmh 29.62 in1003.0 mb - 0.00 in0.0 mm 0.00 in0.0 mm
01:30 AM 41.3°F5.2°C 38.0°F3.3°C 88% Calm Calm 5.8 mph9.3 kmh 29.62 in1003.0 mb - 0.00 in0.0 mm 0.00 in0.0 mm
01:40 AM 41.6°F5.3°C 38.3°F3.5°C 88% 5.8 mph SW9.3 kmh SW 11.5 mph18.5 kmh 29.63 in1003.4 mb - 0.00 in0.0 mm 0.00 in0.0 mm
01:50 AM 41.8°F5.4°C 38.2°F3.4°C 87% 3.5 mph SW5.6 kmh SW 8.1 mph13.0 kmh 29.62 in1003.0 mb - 0.00 in0.0 mm 0.00 in0.0 mm
02:00 AM 41.7°F5.4°C 37.8°F3.2°C 86% 4.6 mph SW7.4 kmh SW 6.9 mph11.1 kmh 29.62 in1003.0 mb - 0.00 in0.0 mm 0.00 in0.0 mm
02:10 AM 41.6°F5.3°C 37.4°F3.0°C 85% 3.5 mph SW5.6 kmh SW 11.5 mph18.5 kmh 29.62 in1003.0 mb - 0.00 in0.0 mm 0.00 in0.0 mm
02:20 AM 41.2°F5.1°C 37.0°F2.8°C 85% 3.5 mph SW5.6 kmh SW 8.1 mph13.0 kmh 29.62 in1003.0 mb - 0.00 in0.0 mm 0.00 in0.0 mm
02:30 AM 40.7°F4.8°C 36.9°F2.7°C 86% 4.6 mph SW7.4 kmh SW 6.9 mph11.1 kmh 29.62 in1003.0 mb - 0.00 in0.0 mm 0.00 in0.0 mm
02:40 AM 40.4°F4.7°C 36.5°F2.5°C 86% 4.6 mph SW7.4 kmh SW 8.1 mph13.0 kmh 29.61 in1002.7 mb - 0.00 in0.0 mm 0.00 in0.0 mm
02:50 AM 40.1°F4.5°C 36.5°F2.5°C 87% 2.3 mph WSW3.7 kmh WSW 4.6 mph7.4 kmh 29.61 in1002.7 mb - 0.00 in0.0 mm 0.00 in0.0 mm
03:00 AM 39.9°F4.4°C 36.3°F2.4°C 87% 2.3 mph SW3.7 kmh SW 4.6 mph7.4 kmh 29.61 in1002.7 mb - 0.00 in0.0 mm 0.00 in0.0 mm
03:10 AM 39.7°F4.3°C 36.4°F2.4°C 88% 3.5 mph SW5.6 kmh SW 10.4 mph16.7 kmh 29.61 in1002.7 mb - 0.00 in0.0 mm 0.00 in0.0 mm
03:20 AM 39.5°F4.2°C 36.3°F2.4°C 88% 3.5 mph SW5.6 kmh SW 8.1 mph13.0 kmh 29.61 in1002.7 mb - 0.00 in0.0 mm 0.00 in0.0 mm
03:30 AM 39.6°F4.2°C 36.6°F2.6°C 89% 6.9 mph SW11.1 kmh SW 10.4 mph16.7 kmh 29.61 in1002.7 mb - 0.00 in0.0 mm 0.00 in0.0 mm
03:40 AM 39.7°F4.3°C 36.7°F2.6°C 89% 4.6 mph SSW7.4 kmh SSW 5.8 mph9.3 kmh 29.61 in1002.7 mb - 0.00 in0.0 mm 0.00 in0.0 mm
03:50 AM 39.8°F4.3°C 36.8°F2.7°C 89% 3.5 mph SW5.6 kmh SW 8.1 mph13.0 kmh 29.61 in1002.7 mb - 0.00 in0.0 mm 0.00 in0.0 mm
04:00 AM 39.9°F4.4°C 36.6°F2.6°C 88% 3.5 mph SSW5.6 kmh SSW 5.8 mph9.3 kmh 29.61 in1002.7 mb - 0.00 in0.0 mm 0.00 in0.0 mm
04:10 AM 40.1°F4.5°C 36.8°F2.7°C 88% 2.3 mph SW3.7 kmh SW 5.8 mph9.3 kmh 29.61 in1002.7 mb - 0.00 in0.0 mm 0.00 in0.0 mm
04:20 AM 40.1°F4.5°C 36.5°F2.5°C 87% 2.3 mph SW3.7 kmh SW 5.8 mph9.3 kmh 29.61 in1002.7 mb - 0.00 in0.0 mm 0.00 in0.0 mm
04:30 AM 39.8°F4.3°C 36.2°F2.3°C 87% 1.2 mph SW1.9 kmh SW 5.8 mph9.3 kmh 29.61 in1002.7 mb - 0.00 in0.0 mm 0.00 in0.0 mm
04:40 AM 39.7°F4.3°C 36.4°F2.4°C 88% 2.3 mph SW3.7 kmh SW 5.8 mph9.3 kmh 29.61 in1002.7 mb - 0.00 in0.0 mm 0.00 in0.0 mm
04:50 AM 39.6°F4.2°C 36.4°F2.4°C 88% 1.2 mph SW1.9 kmh SW 3.5 mph5.6 kmh 29.61 in1002.7 mb - 0.00 in0.0 mm 0.00 in0.0 mm
05:00 AM 39.5°F4.2°C 36.2°F2.3°C 88% 1.2 mph SW1.9 kmh SW 3.5 mph5.6 kmh 29.61 in1002.7 mb - 0.00 in0.0 mm 0.00 in0.0 mm
05:10 AM 39.3°F4.1°C 36.0°F2.2°C 88% 2.3 mph SW3.7 kmh SW 4.6 mph7.4 kmh 29.61 in1002.7 mb - 0.00 in0.0 mm 0.00 in0.0 mm
05:20 AM 39.1°F3.9°C 35.8°F2.1°C 88% 1.2 mph SW1.9 kmh SW 3.5 mph5.6 kmh 29.61 in1002.7 mb - 0.00 in0.0 mm 0.00 in0.0 mm
05:30 AM 38.9°F3.8°C 35.7°F2.1°C 88% 1.2 mph SW1.9 kmh SW 2.3 mph3.7 kmh 29.61 in1002.7 mb - 0.00 in0.0 mm 0.00 in0.0 mm
05:40 AM 38.8°F3.8°C 35.6°F2.0°C 88% 1.2 mph SW1.9 kmh SW 3.5 mph5.6 kmh 29.60 in1002.4 mb - 0.00 in0.0 mm 0.00 in0.0 mm
05:50 AM 38.6°F3.7°C 35.4°F1.9°C 88% 2.3 mph SW3.7 kmh SW 5.8 mph9.3 kmh 29.61 in1002.7 mb - 0.00 in0.0 mm 0.00 in0.0 mm
06:00 AM 38.4°F3.6°C 35.4°F1.9°C 89% 1.2 mph SW1.9 kmh SW 3.5 mph5.6 kmh 29.60 in1002.4 mb - 0.00 in0.0 mm 0.00 in0.0 mm
06:10 AM 38.3°F3.5°C 35.3°F1.8°C 89% 1.2 mph S1.9 kmh S 1.2 mph1.9 kmh 29.60 in1002.4 mb - 0.00 in0.0 mm 0.00 in0.0 mm
06:20 AM 38.5°F3.6°C 35.5°F1.9°C 89% 1.2 mph SW1.9 kmh SW 5.8 mph9.3 kmh 29.60 in1002.4 mb - 0.00 in0.0 mm 0.00 in0.0 mm
06:30 AM 38.8°F3.8°C 35.8°F2.1°C 89% 2.3 mph SSW3.7 kmh SSW 5.8 mph9.3 kmh 29.60 in1002.4 mb - 0.00 in0.0 mm 0.00 in0.0 mm
06:40 AM 39.1°F3.9°C 36.1°F2.3°C 89% 4.6 mph SSW7.4 kmh SSW 6.9 mph11.1 kmh 29.59 in1002.0 mb - 0.00 in0.0 mm 0.00 in0.0 mm
06:50 AM 39.3°F4.1°C 36.1°F2.3°C 88% 4.6 mph SW7.4 kmh SW 8.1 mph13.0 kmh 29.59 in1002.0 mb - 0.00 in0.0 mm 0.00 in0.0 mm
07:00 AM 39.5°F4.2°C 36.0°F2.2°C 87% 2.3 mph SW3.7 kmh SW 6.9 mph11.1 kmh 29.59 in1002.0 mb - 0.00 in0.0 mm 0.00 in0.0 mm
07:10 AM 39.5°F4.2°C 36.0°F2.2°C 87% 2.3 mph SW3.7 kmh SW 4.6 mph7.4 kmh 29.59 in1002.0 mb - 0.00 in0.0 mm 0.00 in0.0 mm
07:20 AM 39.5°F4.2°C 36.0°F2.2°C 87% 3.5 mph SW5.6 kmh SW 8.1 mph13.0 kmh 29.59 in1002.0 mb - 0.00 in0.0 mm 0.00 in0.0 mm
07:30 AM 39.5°F4.2°C 36.0°F2.2°C 87% 1.2 mph WSW1.9 kmh WSW 4.6 mph7.4 kmh 29.60 in1002.4 mb - 0.00 in0.0 mm 0.00 in0.0 mm
07:40 AM 39.5°F4.2°C 35.7°F2.1°C 86% 2.3 mph SW3.7 kmh SW 3.5 mph5.6 kmh 29.60 in1002.4 mb - 0.00 in0.0 mm 0.00 in0.0 mm
07:50 AM 39.6°F4.2°C 35.8°F2.1°C 86% 3.5 mph SW5.6 kmh SW 5.8 mph9.3 kmh 29.60 in1002.4 mb - 0.00 in0.0 mm 0.00 in0.0 mm
08:00 AM 40.1°F4.5°C 36.0°F2.2°C 85% 3.5 mph SW5.6 kmh SW 9.2 mph14.8 kmh 29.60 in1002.4 mb - 0.00 in0.0 mm 0.00 in0.0 mm
08:10 AM 40.4°F4.7°C 35.9°F2.2°C 84% 2.3 mph SW3.7 kmh SW 8.1 mph13.0 kmh 29.59 in1002.0 mb - 0.00 in0.0 mm 0.00 in0.0 mm
08:20 AM 40.3°F4.6°C 36.1°F2.3°C 85% 4.6 mph SW7.4 kmh SW 8.1 mph13.0 kmh 29.59 in1002.0 mb - 0.00 in0.0 mm 0.00 in0.0 mm
08:30 AM 40.4°F4.7°C 36.5°F2.5°C 86% 4.6 mph SW7.4 kmh SW 10.4 mph16.7 kmh 29.59 in1002.0 mb - 0.00 in0.0 mm 0.00 in0.0 mm
08:40 AM 40.7°F4.8°C 36.6°F2.6°C 85% 4.6 mph SW7.4 kmh SW 9.2 mph14.8 kmh 29.59 in1002.0 mb - 0.00 in0.0 mm 0.00 in0.0 mm
08:50 AM 41.2°F5.1°C 37.0°F2.8°C 85% 3.5 mph SW5.6 kmh SW 6.9 mph11.1 kmh 29.58 in1001.7 mb - 0.00 in0.0 mm 0.00 in0.0 mm
09:00 AM 41.6°F5.3°C 37.1°F2.8°C 84% 4.6 mph SW7.4 kmh SW 9.2 mph14.8 kmh 29.58 in1001.7 mb - 0.00 in0.0 mm 0.00 in0.0 mm
09:10 AM 42.0°F5.6°C 37.5°F3.1°C 84% 3.5 mph SW5.6 kmh SW 10.4 mph16.7 kmh 29.58 in1001.7 mb - 0.00 in0.0 mm 0.00 in0.0 mm
09:20 AM 42.4°F5.8°C 37.6°F3.1°C 83% 4.6 mph SW7.4 kmh SW 11.5 mph18.5 kmh 29.58 in1001.7 mb - 0.00 in0.0 mm 0.00 in0.0 mm
09:30 AM 43.0°F6.1°C 38.2°F3.4°C 83% 2.3 mph SSW3.7 kmh SSW 8.1 mph13.0 kmh 29.58 in1001.7 mb - 0.00 in0.0 mm 0.00 in0.0 mm
09:40 AM 44.1°F6.7°C 38.9°F3.8°C 82% 4.6 mph SW7.4 kmh SW 10.4 mph16.7 kmh 29.58 in1001.7 mb - 0.00 in0.0 mm 0.00 in0.0 mm
09:50 AM 44.9°F7.2°C 39.1°F3.9°C 80% 3.5 mph SW5.6 kmh SW 10.4 mph16.7 kmh 29.58 in1001.7 mb - 0.00 in0.0 mm 0.00 in0.0 mm
10:00 AM 45.7°F7.6°C 39.2°F4.0°C 78% 5.8 mph SW9.3 kmh SW 9.2 mph14.8 kmh 29.58 in1001.7 mb - 0.00 in0.0 mm 0.00 in0.0 mm
10:10 AM 46.3°F7.9°C 39.5°F4.2°C 77% 1.2 mph SSW1.9 kmh SSW 11.5 mph18.5 kmh 29.58 in1001.7 mb - 0.00 in0.0 mm 0.00 in0.0 mm
10:20 AM 47.0°F8.3°C 39.8°F4.3°C 76% 2.3 mph WSW3.7 kmh WSW -- 29.57 in1001.4 mb - 0.00 in0.0 mm 0.00 in0.0 mm
10:30 AM 47.7°F8.7°C 40.5°F4.7°C 76% 3.5 mph SSW5.6 kmh SSW 10.4 mph16.7 kmh 29.57 in1001.4 mb - 0.00 in0.0 mm 0.00 in0.0 mm
10:40 AM 47.9°F8.8°C 40.4°F4.7°C 75% 4.6 mph SW7.4 kmh SW 11.5 mph18.5 kmh 29.57 in1001.4 mb - 0.00 in0.0 mm 0.00 in0.0 mm
10:50 AM 48.5°F9.2°C 39.9°F4.4°C 72% 4.6 mph SW7.4 kmh SW 12.7 mph20.4 kmh 29.57 in1001.4 mb - 0.00 in0.0 mm 0.00 in0.0 mm
11:00 AM 48.7°F9.3°C 39.4°F4.1°C 70% 9.2 mph WSW14.8 kmh WSW 11.5 mph18.5 kmh 29.56 in1001.0 mb - 0.00 in0.0 mm 0.00 in0.0 mm
11:10 AM 48.9°F9.4°C 39.6°F4.2°C 70% 8.1 mph WSW13.0 kmh WSW 10.4 mph16.7 kmh 29.56 in1001.0 mb - 0.00 in0.0 mm 0.00 in0.0 mm
11:20 AM 48.9°F9.4°C 38.8°F3.8°C 68% 10.4 mph SW16.7 kmh SW 12.7 mph20.4 kmh 29.56 in1001.0 mb - 0.00 in0.0 mm 0.00 in0.0 mm
11:30 AM 48.7°F9.3°C 38.6°F3.7°C 68% 9.2 mph SW14.8 kmh SW 15.0 mph24.1 kmh 29.56 in1001.0 mb - 0.00 in0.0 mm 0.00 in0.0 mm
11:40 AM 48.5°F9.2°C 38.5°F3.6°C 68% 6.9 mph SW11.1 kmh SW 24.2 mph38.9 kmh 29.55 in1000.7 mb - 0.00 in0.0 mm 0.00 in0.0 mm
11:50 AM 49.1°F9.5°C 38.6°F3.7°C 67% 6.9 mph SW11.1 kmh SW 12.7 mph20.4 kmh 29.55 in1000.7 mb - 0.00 in0.0 mm 0.00 in0.0 mm
12:00 PM 49.5°F9.7°C 38.6°F3.7°C 66% 10.4 mph WSW16.7 kmh WSW 20.7 mph33.3 kmh 29.55 in1000.7 mb - 0.00 in0.0 mm 0.00 in0.0 mm
12:10 PM 50.0°F10.0°C 38.3°F3.5°C 64% 10.4 mph WNW16.7 kmh WNW 16.1 mph25.9 kmh 29.55 in1000.7 mb - 0.00 in0.0 mm 0.00 in0.0 mm
12:20 PM 50.4°F10.2°C 38.3°F3.5°C 63% 13.8 mph SW22.2 kmh SW 23.0 mph37.0 kmh 29.55 in1000.7 mb - 0.00 in0.0 mm 0.00 in0.0 mm
12:30 PM 48.8°F9.3°C 38.3°F3.5°C 67% 8.1 mph WSW13.0 kmh WSW 20.7 mph33.3 kmh 29.55 in1000.7 mb - 0.00 in0.0 mm 0.00 in0.0 mm
12:40 PM 48.2°F9.0°C 38.5°F3.6°C 69% 3.5 mph SW5.6 kmh SW 8.1 mph13.0 kmh 29.55 in1000.7 mb - 0.00 in0.0 mm 0.00 in0.0 mm
12:50 PM 48.0°F8.9°C 38.7°F3.7°C 70% 8.1 mph WSW13.0 kmh WSW 15.0 mph24.1 kmh 29.55 in1000.7 mb - 0.00 in0.0 mm 0.00 in0.0 mm
01:00 PM 47.8°F8.8°C 38.8°F3.8°C 71% 10.4 mph SW16.7 kmh SW 19.6 mph31.5 kmh 29.54 in1000.3 mb - 0.00 in0.0 mm 0.00 in0.0 mm
01:10 PM 47.7°F8.7°C 39.8°F4.3°C 74% 10.4 mph SW16.7 kmh SW 11.5 mph18.5 kmh 29.55 in1000.7 mb - 0.00 in0.0 mm 0.00 in0.0 mm
01:20 PM 47.3°F8.5°C 40.4°F4.7°C 77% 6.9 mph WSW11.1 kmh WSW 13.8 mph22.2 kmh 29.55 in1000.7 mb - 0.00 in0.0 mm 0.00 in0.0 mm
01:30 PM 46.9°F8.3°C 40.7°F4.8°C 79% 3.5 mph WSW5.6 kmh WSW 6.9 mph11.1 kmh 29.55 in1000.7 mb - 0.01 in0.3 mm 0.01 in0.3 mm
01:40 PM 46.6°F8.1°C 41.1°F5.1°C 81% 2.3 mph WSW3.7 kmh WSW 4.6 mph7.4 kmh 29.54 in1000.3 mb - 0.00 in0.0 mm 0.01 in0.3 mm
01:50 PM 46.4°F8.0°C 41.2°F5.1°C 82% 4.6 mph WSW7.4 kmh WSW 6.9 mph11.1 kmh 29.54 in1000.3 mb - 0.01 in0.3 mm 0.02 in0.5 mm
02:00 PM 46.5°F8.1°C 41.0°F5.0°C 81% 4.6 mph SW7.4 kmh SW 15.0 mph24.1 kmh 29.54 in1000.3 mb - 0.00 in0.0 mm 0.02 in0.5 mm
02:10 PM 46.8°F8.2°C 41.0°F5.0°C 80% 4.6 mph WSW7.4 kmh WSW 6.9 mph11.1 kmh 29.53 in1000.0 mb - 0.00 in0.0 mm 0.02 in0.5 mm
02:20 PM 47.0°F8.3°C 40.8°F4.9°C 79% 4.6 mph SW7.4 kmh SW 10.4 mph16.7 kmh 29.54 in1000.3 mb - 0.00 in0.0 mm 0.02 in0.5 mm
02:30 PM 47.2°F8.4°C 41.0°F5.0°C 79% 2.3 mph SW3.7 kmh SW 11.5 mph18.5 kmh 29.53 in1000.0 mb - 0.00 in0.0 mm 0.02 in0.5 mm
02:40 PM 47.3°F8.5°C 41.1°F5.1°C 79% 8.1 mph WSW13.0 kmh WSW 13.8 mph22.2 kmh 29.53 in1000.0 mb - 0.00 in0.0 mm 0.02 in0.5 mm
02:50 PM 47.4°F8.6°C 41.6°F5.3°C 80% 9.2 mph SW14.8 kmh SW 11.5 mph18.5 kmh 29.53 in1000.0 mb - 0.00 in0.0 mm 0.02 in0.5 mm
03:00 PM 47.6°F8.7°C 41.7°F5.4°C 80% 5.8 mph W9.3 kmh W 10.4 mph16.7 kmh 29.53 in1000.0 mb - 0.00 in0.0 mm 0.02 in0.5 mm
03:10 PM 47.7°F8.7°C 41.8°F5.4°C 80% 5.8 mph WSW9.3 kmh WSW 16.1 mph25.9 kmh 29.54 in1000.3 mb - 0.00 in0.0 mm 0.02 in0.5 mm
03:20 PM 47.7°F8.7°C 41.8°F5.4°C 80% 6.9 mph WSW11.1 kmh WSW 18.4 mph29.6 kmh 29.53 in1000.0 mb - 0.00 in0.0 mm 0.02 in0.5 mm
03:30 PM 47.7°F8.7°C 42.2°F5.7°C 81% 2.3 mph W3.7 kmh W 8.1 mph13.0 kmh 29.54 in1000.3 mb - 0.00 in0.0 mm 0.02 in0.5 mm
03:40 PM 47.6°F8.7°C 42.3°F5.7°C 82% 4.6 mph WSW7.4 kmh WSW 11.5 mph18.5 kmh 29.54 in1000.3 mb - 0.00 in0.0 mm 0.02 in0.5 mm
03:50 PM 47.4°F8.6°C 42.2°F5.7°C 82% 5.8 mph WSW9.3 kmh WSW 9.2 mph14.8 kmh 29.54 in1000.3 mb - 0.00 in0.0 mm 0.02 in0.5 mm
04:00 PM 47.4°F8.6°C 42.5°F5.8°C 83% 2.3 mph NW3.7 kmh NW 5.8 mph9.3 kmh 29.55 in1000.7 mb - 0.00 in0.0 mm 0.02 in0.5 mm
04:10 PM 47.2°F8.4°C 42.6°F5.9°C 84% 5.8 mph WSW9.3 kmh WSW 10.4 mph16.7 kmh 29.55 in1000.7 mb - 0.01 in0.3 mm 0.02 in0.5 mm
04:20 PM 47.0°F8.3°C 42.7°F5.9°C 85% 2.3 mph SSW3.7 kmh SSW 3.5 mph5.6 kmh 29.55 in1000.7 mb - 0.01 in0.3 mm 0.02 in0.5 mm
04:30 PM 46.9°F8.3°C 42.6°F5.9°C 85% 3.5 mph NW5.6 kmh NW 8.1 mph13.0 kmh 29.55 in1000.7 mb - 0.00 in0.0 mm 0.02 in0.5 mm
04:40 PM 46.9°F8.3°C 42.3°F5.7°C 84% 6.9 mph WNW11.1 kmh WNW 13.8 mph22.2 kmh 29.55 in1000.7 mb - 0.00 in0.0 mm 0.02 in0.5 mm
04:50 PM 47.0°F8.3°C 42.4°F5.8°C 84% 6.9 mph WNW11.1 kmh WNW 11.5 mph18.5 kmh 29.56 in1001.0 mb - 0.00 in0.0 mm 0.02 in0.5 mm
05:00 PM 47.1°F8.4°C 42.5°F5.8°C 84% 5.8 mph NW9.3 kmh NW 11.5 mph18.5 kmh 29.56 in1001.0 mb - 0.00 in0.0 mm 0.02 in0.5 mm
05:10 PM 47.1°F8.4°C 42.5°F5.8°C 84% 9.2 mph WSW14.8 kmh WSW 11.5 mph18.5 kmh 29.56 in1001.0 mb - 0.00 in0.0 mm 0.02 in0.5 mm
05:20 PM 47.1°F8.4°C 42.6°F5.9°C 84% 3.5 mph WNW5.6 kmh WNW 10.4 mph16.7 kmh 29.56 in1001.0 mb - 0.00 in0.0 mm 0.02 in0.5 mm
05:30 PM 47.1°F8.4°C 42.5°F5.8°C 84% 3.5 mph W5.6 kmh W 11.5 mph18.5 kmh 29.56 in1001.0 mb - 0.00 in0.0 mm 0.02 in0.5 mm
05:40 PM 47.1°F8.4°C 42.5°F5.8°C 84% 2.3 mph W3.7 kmh W 4.6 mph7.4 kmh 29.57 in1001.4 mb - 0.00 in0.0 mm 0.02 in0.5 mm
05:50 PM 47.1°F8.4°C 42.5°F5.8°C 84% 2.3 mph W3.7 kmh W 15.0 mph24.1 kmh 29.57 in1001.4 mb - 0.00 in0.0 mm 0.02 in0.5 mm
06:00 PM 47.1°F8.4°C 42.5°F5.8°C 84% 4.6 mph WNW7.4 kmh WNW 11.5 mph18.5 kmh 29.57 in1001.4 mb - 0.00 in0.0 mm 0.02 in0.5 mm
06:10 PM 47.1°F8.4°C 42.9°F6.1°C 85% 3.5 mph W5.6 kmh W 8.1 mph13.0 kmh 29.58 in1001.7 mb - 0.00 in0.0 mm 0.02 in0.5 mm
06:20 PM 47.2°F8.4°C 42.6°F5.9°C 84% 6.9 mph NW11.1 kmh NW 23.0 mph37.0 kmh 29.58 in1001.7 mb - 0.00 in0.0 mm 0.02 in0.5 mm
06:30 PM 47.3°F8.5°C 42.7°F5.9°C 84% 8.1 mph NW13.0 kmh NW 13.8 mph22.2 kmh 29.58 in1001.7 mb - 0.00 in0.0 mm 0.02 in0.5 mm
06:40 PM 47.1°F8.4°C 42.5°F5.8°C 84% 3.5 mph WNW5.6 kmh WNW 11.5 mph18.5 kmh 29.58 in1001.7 mb - 0.00 in0.0 mm 0.02 in0.5 mm
06:50 PM 46.9°F8.3°C 42.6°F5.9°C 85% 5.8 mph NW9.3 kmh NW 11.5 mph18.5 kmh 29.59 in1002.0 mb - 0.00 in0.0 mm 0.02 in0.5 mm
07:00 PM 46.8°F8.2°C 42.5°F5.8°C 85% 5.8 mph WNW9.3 kmh WNW 11.5 mph18.5 kmh 29.59 in1002.0 mb - 0.00 in0.0 mm 0.02 in0.5 mm
07:10 PM 46.7°F8.2°C 42.4°F5.8°C 85% 6.9 mph WSW11.1 kmh WSW 12.7 mph20.4 kmh 29.59 in1002.0 mb - 0.00 in0.0 mm 0.02 in0.5 mm
07:20 PM 46.5°F8.1°C 42.3°F5.7°C 85% 3.5 mph WSW5.6 kmh WSW 9.2 mph14.8 kmh 29.59 in1002.0 mb - 0.00 in0.0 mm 0.02 in0.5 mm
07:40 PM 46.6°F8.1°C 42.3°F5.7°C 85% 2.3 mph SW3.7 kmh SW 4.6 mph7.4 kmh 29.60 in1002.4 mb - 0.00 in0.0 mm 0.02 in0.5 mm
07:50 PM 46.5°F8.1°C 42.2°F5.7°C 85% 3.5 mph WSW5.6 kmh WSW 8.1 mph13.0 kmh 29.60 in1002.4 mb - 0.00 in0.0 mm 0.02 in0.5 mm
08:00 PM 46.5°F8.1°C 42.2°F5.7°C 85% 1.2 mph WSW1.9 kmh WSW 8.1 mph13.0 kmh 29.60 in1002.4 mb - 0.00 in0.0 mm 0.02 in0.5 mm
08:10 PM 46.4°F8.0°C 41.8°F5.4°C 84% 4.6 mph SW7.4 kmh SW 6.9 mph11.1 kmh 29.60 in1002.4 mb - 0.00 in0.0 mm 0.02 in0.5 mm
08:20 PM 46.4°F8.0°C 42.2°F5.7°C 85% 2.3 mph W3.7 kmh W 8.1 mph13.0 kmh 29.61 in1002.7 mb - 0.00 in0.0 mm 0.02 in0.5 mm
08:30 PM 46.4°F8.0°C 42.1°F5.6°C 85% 3.5 mph WSW5.6 kmh WSW 9.2 mph14.8 kmh 29.61 in1002.7 mb - 0.00 in0.0 mm 0.02 in0.5 mm
08:40 PM 46.3°F7.9°C 42.0°F5.6°C 85% Calm Calm -- 29.61 in1002.7 mb - 0.00 in0.0 mm 0.02 in0.5 mm
08:50 PM 46.1°F7.8°C 41.8°F5.4°C 85% 2.3 mph NW3.7 kmh NW 4.6 mph7.4 kmh 29.62 in1003.0 mb - 0.00 in0.0 mm 0.02 in0.5 mm
09:00 PM 46.0°F7.8°C 41.7°F5.4°C 85% 4.6 mph WSW7.4 kmh WSW 6.9 mph11.1 kmh 29.62 in1003.0 mb - 0.00 in0.0 mm 0.02 in0.5 mm
09:10 PM 45.9°F7.7°C 41.6°F5.3°C 85% 1.2 mph W1.9 kmh W 1.2 mph1.9 kmh 29.62 in1003.0 mb - 0.00 in0.0 mm 0.02 in0.5 mm
09:20 PM 45.7°F7.6°C 41.8°F5.4°C 86% Calm Calm 9.2 mph14.8 kmh 29.61 in1002.7 mb - 0.00 in0.0 mm 0.02 in0.5 mm
09:30 PM 45.5°F7.5°C 41.5°F5.3°C 86% 3.5 mph WSW5.6 kmh WSW 8.1 mph13.0 kmh 29.61 in1002.7 mb - 0.00 in0.0 mm 0.02 in0.5 mm
09:40 PM 45.4°F7.4°C 41.4°F5.2°C 86% 2.3 mph SW3.7 kmh SW 4.6 mph7.4 kmh 29.62 in1003.0 mb - 0.00 in0.0 mm 0.02 in0.5 mm
09:50 PM 45.2°F7.3°C 41.3°F5.2°C 86% Calm Calm -- 29.62 in1003.0 mb - 0.00 in0.0 mm 0.02 in0.5 mm
10:00 PM 45.2°F7.3°C 41.3°F5.2°C 86% 1.2 mph W1.9 kmh W 2.3 mph3.7 kmh 29.62 in1003.0 mb - 0.00 in0.0 mm 0.02 in0.5 mm
10:10 PM 45.1°F7.3°C 41.2°F5.1°C 86% 2.3 mph W3.7 kmh W 6.9 mph11.1 kmh 29.63 in1003.4 mb - 0.00 in0.0 mm 0.02 in0.5 mm
10:20 PM 45.1°F7.3°C 41.5°F5.3°C 87% Calm Calm -- 29.63 in1003.4 mb - 0.00 in0.0 mm 0.02 in0.5 mm
10:30 PM 45.2°F7.3°C 41.6°F5.3°C 87% 2.3 mph WNW3.7 kmh WNW 8.1 mph13.0 kmh 29.63 in1003.4 mb - 0.00 in0.0 mm 0.02 in0.5 mm
10:40 PM 45.2°F7.3°C 41.5°F5.3°C 87% 1.2 mph NW1.9 kmh NW 3.5 mph5.6 kmh 29.63 in1003.4 mb - 0.00 in0.0 mm 0.02 in0.5 mm
10:50 PM 45.0°F7.2°C 41.4°F5.2°C 87% Calm Calm -- 29.63 in1003.4 mb - 0.00 in0.0 mm 0.02 in0.5 mm
11:00 PM 44.7°F7.1°C 41.1°F5.1°C 87% Calm Calm -- 29.63 in1003.4 mb - 0.00 in0.0 mm 0.02 in0.5 mm
11:10 PM 44.5°F6.9°C 41.2°F5.1°C 88% Calm Calm 2.3 mph3.7 kmh 29.64 in1003.7 mb - 0.00 in0.0 mm 0.02 in0.5 mm
11:20 PM 44.5°F6.9°C 41.2°F5.1°C 88% Calm Calm -- 29.64 in1003.7 mb - 0.00 in0.0 mm 0.02 in0.5 mm
11:30 PM 44.3°F6.8°C 41.0°F5.0°C 88% Calm Calm -- 29.64 in1003.7 mb - 0.00 in0.0 mm 0.02 in0.5 mm
11:40 PM 44.1°F6.7°C 40.8°F4.9°C 88% Calm Calm -- 29.64 in1003.7 mb - 0.00 in0.0 mm 0.02 in0.5 mm
11:50 PM 44.0°F6.7°C 40.7°F4.8°C 88% 1.2 mph W1.9 kmh W 4.6 mph7.4 kmh 29.64 in1003.7 mb - 0.00 in0.0 mm 0.02 in0.5 mm